Dost 1 — TCPI — position and weather

sailwx.info

Track history (hours):
 
Tides and Currents Weather Stations Pressure Air Temp Water Temp Dewpoint Dewpoint Depression Visibility Wind Speed Wind Dir Waves Ship Positions

Dost 1

Last reported at 2014-Dec-22 03:15 UTC. Time now 2014-Dec-22 19:31 UTC.
Position N 40°28' E 026°51'.

Length 115 m; draft 6.1 m.

Type: Cargo ship. MMSI: 271000303.

Date/timePositionNaut miles runAvg speedWind from/ knotsBaromVisibWave heightAir tempDewpointWater temp
2014-Dec-22 03:15N 40°28' E 026°51'912.1
2014-Dec-22 02:33N 40°23' E 026°41'44 9.8
2014-Dec-21 22:07N 39°56' E 025°57'  
2014-Dec-19 13:14N 38°06' E 024°54'2112.2
2014-Dec-19 11:33N 37°55' E 024°32'2311.2
2014-Dec-19 09:31N 38°07' E 024°08'  
2014-Dec-12 23:30N 38°09' E 024°09'1210.7
2014-Dec-12 22:24N 37°58' E 024°13'1010.9
2014-Dec-12 21:30N 37°55' E 024°25'2110.9
2014-Dec-12 19:33N 38°11' E 024°44'  
Track history (hours):
 
Tides and Currents Weather Stations Pressure Air Temp Water Temp Dewpoint Dewpoint Depression Visibility Wind Speed Wind Dir Waves Ship Positions

Dost 1

Last reported at 2014-Dec-22 03:15 UTC. Time now 2014-Dec-22 19:31 UTC.
Position N 40°28' E 026°51'.

Length 115 m; draft 6.1 m.

Type: Cargo ship. MMSI: 271000303.

Date/timePositionNaut miles runAvg speedWind from/ knotsBaromVisibWave heightAir tempDewpointWater temp
2014-Dec-22 03:15N 40°28' E 026°51'912.1
2014-Dec-22 02:33N 40°23' E 026°41'44 9.8
2014-Dec-21 22:07N 39°56' E 025°57'  
2014-Dec-19 13:14N 38°06' E 024°54'2112.2
2014-Dec-19 11:33N 37°55' E 024°32'2311.2
2014-Dec-19 09:31N 38°07' E 024°08'  
2014-Dec-12 23:30N 38°09' E 024°09'1210.7
2014-Dec-12 22:24N 37°58' E 024°13'1010.9
2014-Dec-12 21:30N 37°55' E 024°25'2110.9
2014-Dec-12 19:33N 38°11' E 024°44'  

Dump ship's entire track history